createdAt,value
2022-10-06T00:00:44.853Z,55.31
2022-10-06T00:03:34.471Z,55.31
2022-10-06T00:06:24.359Z,55.24
2022-10-06T00:09:14.856Z,55.29
2022-10-06T00:12:05.782Z,55.26
2022-10-06T00:14:56.816Z,55.26
2022-10-06T00:17:46.961Z,55.35
2022-10-06T00:20:37.301Z,55.40
2022-10-06T00:23:28.941Z,55.42
2022-10-06T00:26:19.215Z,55.44
2022-10-06T00:29:10.012Z,55.56
2022-10-06T00:31:59.975Z,55.42
2022-10-06T00:34:50.474Z,55.45
2022-10-06T00:37:41.170Z,55.50
2022-10-06T00:40:34.020Z,55.56
2022-10-06T00:43:49.588Z,55.69
2022-10-06T00:46:41.599Z,55.69
2022-10-06T00:49:36.319Z,55.68
2022-10-06T00:52:29.848Z,55.69
2022-10-06T00:55:22.418Z,55.52
2022-10-06T00:58:13.725Z,55.45
2022-10-06T01:01:04.507Z,55.43
2022-10-06T01:04:00.834Z,55.40
2022-10-06T01:06:53.911Z,55.30
2022-10-06T01:09:43.731Z,55.30
2022-10-06T01:12:35.657Z,55.34
2022-10-06T01:15:27.111Z,55.45
2022-10-06T01:18:20.965Z,55.50
2022-10-06T01:21:16.635Z,55.56
2022-10-06T01:24:07.265Z,55.53
2022-10-06T01:26:58.868Z,55.52
2022-10-06T01:29:51.674Z,55.49
2022-10-06T01:32:43.339Z,55.54
2022-10-06T01:35:33.298Z,55.59
2022-10-06T01:38:23.681Z,55.55
2022-10-06T01:41:19.627Z,55.51
2022-10-06T01:44:10.051Z,55.54
2022-10-06T01:46:59.944Z,55.55
2022-10-06T01:49:50.398Z,55.52
2022-10-06T01:52:40.884Z,55.55
2022-10-06T01:55:31.372Z,55.54
2022-10-06T01:58:22.734Z,55.52
2022-10-06T02:01:13.651Z,55.56
2022-10-06T02:04:04.072Z,55.54
2022-10-06T02:06:55.633Z,55.49
2022-10-06T02:09:46.241Z,55.67
2022-10-06T02:12:36.865Z,55.72
2022-10-06T02:15:28.630Z,55.76
2022-10-06T02:18:18.474Z,55.79
2022-10-06T02:21:14.658Z,55.85
2022-10-06T02:24:04.973Z,55.79
2022-10-06T02:26:55.396Z,55.93
2022-10-06T02:29:46.098Z,56.01
2022-10-06T02:32:40.133Z,55.96
2022-10-06T02:35:31.237Z,56.01
2022-10-06T02:38:22.284Z,56.07
2022-10-06T02:41:13.083Z,56.04
2022-10-06T02:44:03.617Z,56.14
2022-10-06T02:46:54.800Z,56.17
2022-10-06T02:49:45.509Z,56.29
2022-10-06T02:52:38.522Z,56.38
2022-10-06T02:55:28.629Z,56.50
2022-10-06T02:58:18.772Z,56.59
2022-10-06T03:01:11.421Z,56.65
2022-10-06T03:04:01.365Z,56.71
2022-10-06T03:06:52.016Z,56.72
2022-10-06T03:09:44.985Z,56.82
2022-10-06T03:12:35.068Z,56.87
2022-10-06T03:15:25.683Z,56.88
2022-10-06T03:18:16.413Z,56.93
2022-10-06T03:21:06.540Z,56.90
2022-10-06T03:23:57.604Z,57.01
2022-10-06T03:26:49.667Z,57.09
2022-10-06T03:29:40.615Z,57.16
2022-10-06T03:32:30.985Z,57.12
2022-10-06T03:35:21.590Z,57.15
2022-10-06T03:38:11.424Z,57.12
2022-10-06T03:41:10.974Z,57.05
2022-10-06T03:44:01.882Z,57.04
2022-10-06T03:46:53.620Z,57.02
2022-10-06T03:49:43.409Z,56.94
2022-10-06T03:52:33.996Z,56.98
2022-10-06T03:55:24.039Z,57.01
2022-10-06T03:58:18.930Z,57.05
2022-10-06T04:01:10.748Z,57.08
2022-10-06T04:04:02.623Z,57.13
2022-10-06T04:06:52.788Z,57.11
2022-10-06T04:09:43.517Z,57.02
2022-10-06T04:12:36.375Z,57.01
2022-10-06T04:15:26.655Z,56.83
2022-10-06T04:18:17.518Z,56.89
2022-10-06T04:21:07.664Z,56.97
2022-10-06T04:23:59.072Z,57.13
2022-10-06T04:26:50.228Z,57.20
2022-10-06T04:29:41.349Z,57.20
2022-10-06T04:32:32.371Z,57.22
2022-10-06T04:35:23.539Z,57.20
2022-10-06T04:38:15.682Z,57.28
2022-10-06T04:41:12.789Z,57.30
2022-10-06T04:44:04.123Z,57.26
2022-10-06T04:46:54.389Z,57.27
2022-10-06T04:49:45.296Z,57.24
2022-10-06T04:52:36.049Z,57.26
2022-10-06T04:55:26.035Z,57.34
2022-10-06T04:58:16.355Z,57.37
2022-10-06T05:01:13.118Z,57.38
2022-10-06T05:04:04.744Z,57.34
2022-10-06T05:06:55.278Z,57.31
2022-10-06T05:09:47.301Z,57.37
2022-10-06T05:12:38.560Z,57.34
2022-10-06T05:15:29.209Z,57.37
2022-10-06T05:18:19.276Z,57.47
2022-10-06T05:21:12.999Z,58.26
2022-10-06T05:24:04.204Z,57.63
2022-10-06T05:26:58.326Z,56.95
2022-10-06T05:29:51.183Z,56.72
2022-10-06T05:32:41.749Z,56.71
2022-10-06T05:35:31.603Z,56.75
2022-10-06T05:38:22.788Z,56.47
2022-10-06T05:41:14.691Z,56.38
2022-10-06T05:44:05.647Z,56.36
2022-10-06T05:46:57.068Z,56.26
2022-10-06T05:49:46.693Z,56.22
2022-10-06T05:52:36.580Z,56.13
2022-10-06T05:55:27.325Z,56.08
2022-10-06T05:58:18.579Z,56.04
2022-10-06T06:01:14.827Z,55.83
2022-10-06T06:04:06.547Z,55.70
2022-10-06T06:07:01.487Z,55.78
2022-10-06T06:09:51.651Z,55.78
2022-10-06T06:12:42.445Z,55.84
2022-10-06T06:16:04.127Z,55.81
2022-10-06T06:18:54.606Z,55.91
2022-10-06T06:21:44.693Z,55.98
2022-10-06T06:24:34.986Z,55.93
2022-10-06T06:27:26.506Z,56.02
2022-10-06T06:30:17.783Z,56.16
2022-10-06T06:33:08.104Z,56.09
2022-10-06T06:36:01.481Z,55.93
2022-10-06T06:38:53.717Z,55.90
2022-10-06T06:41:46.487Z,55.93
2022-10-06T06:44:57.584Z,55.98
2022-10-06T06:47:53.945Z,55.92
2022-10-06T06:50:44.688Z,55.81
2022-10-06T06:53:36.286Z,55.84
2022-10-06T06:56:26.752Z,55.85
2022-10-06T06:59:17.399Z,55.73
2022-10-06T07:02:12.617Z,55.76
2022-10-06T07:05:07.000Z,55.65
2022-10-06T07:07:57.479Z,55.61
2022-10-06T07:10:48.675Z,55.75
2022-10-06T07:13:39.198Z,56.14
2022-10-06T07:16:48.594Z,55.99
2022-10-06T07:19:52.651Z,55.67
2022-10-06T07:23:00.780Z,55.54
2022-10-06T07:25:50.641Z,55.46
2022-10-06T07:28:42.482Z,55.36
2022-10-06T07:31:34.634Z,55.25
2022-10-06T07:34:24.632Z,55.50
2022-10-06T07:37:14.741Z,55.55
2022-10-06T07:40:05.770Z,55.50
2022-10-06T07:42:56.314Z,55.51
2022-10-06T07:45:50.275Z,55.81
2022-10-06T07:48:46.786Z,56.24
2022-10-06T07:51:36.887Z,56.63
2022-10-06T07:54:27.765Z,56.64
2022-10-06T07:57:36.723Z,56.42
2022-10-06T08:00:27.219Z,56.29
2022-10-06T08:03:18.908Z,56.16
2022-10-06T08:06:12.541Z,56.05
2022-10-06T08:09:02.499Z,55.96
2022-10-06T08:11:53.200Z,55.81
2022-10-06T08:14:43.159Z,55.73
2022-10-06T08:17:33.523Z,55.74
2022-10-06T08:20:41.489Z,55.60
2022-10-06T08:26:56.359Z,55.66
2022-10-06T08:29:46.394Z,55.55
2022-10-06T08:32:37.595Z,55.55
2022-10-06T08:35:29.134Z,55.38
2022-10-06T08:38:20.223Z,55.26
2022-10-06T08:41:22.166Z,55.22
2022-10-06T08:44:25.973Z,55.16
2022-10-06T08:47:20.359Z,55.10
2022-10-06T08:50:15.042Z,54.94
2022-10-06T08:53:15.540Z,54.82
2022-10-06T08:56:18.535Z,54.71
2022-10-06T08:59:10.008Z,54.23
2022-10-06T09:02:00.027Z,53.42
2022-10-06T09:04:51.293Z,52.09
2022-10-06T09:07:52.536Z,51.21
2022-10-06T09:10:52.050Z,50.14
2022-10-06T09:13:47.357Z,48.76
2022-10-06T09:16:41.023Z,48.21
2022-10-06T09:19:41.216Z,48.28
2022-10-06T09:22:33.847Z,48.14
2022-10-06T09:25:28.068Z,47.78
2022-10-06T09:28:19.405Z,47.64
2022-10-06T09:31:21.006Z,47.41
2022-10-06T09:34:21.691Z,47.36
2022-10-06T09:37:13.918Z,47.59
2022-10-06T09:40:04.619Z,47.61
2022-10-06T09:42:54.923Z,47.75
2022-10-06T09:45:44.757Z,48.04
2022-10-06T09:48:34.353Z,48.04
2022-10-06T09:51:25.424Z,47.97
2022-10-06T09:54:18.071Z,48.06
2022-10-06T09:57:16.272Z,48.18
2022-10-06T10:00:27.393Z,48.20
2022-10-06T10:03:18.538Z,48.27
2022-10-06T10:06:09.129Z,48.41
2022-10-06T10:09:28.838Z,48.55
2022-10-06T10:12:31.138Z,48.54
2022-10-06T10:15:33.937Z,48.66
2022-10-06T10:18:28.191Z,48.82
2022-10-06T10:21:29.743Z,48.84
2022-10-06T10:24:31.956Z,48.89
2022-10-06T10:27:27.685Z,48.77
2022-10-06T10:30:18.267Z,48.69
2022-10-06T10:33:17.242Z,48.72
2022-10-06T10:36:10.923Z,48.85
2022-10-06T10:39:02.213Z,48.80
2022-10-06T10:41:57.580Z,48.72
2022-10-06T10:44:55.551Z,48.55
2022-10-06T10:47:48.858Z,48.64
2022-10-06T10:50:48.830Z,48.66
2022-10-06T10:53:47.675Z,48.62
2022-10-06T10:56:38.934Z,48.61
2022-10-06T10:59:34.606Z,48.52
2022-10-06T11:02:26.577Z,48.62
2022-10-06T11:05:33.461Z,48.77
2022-10-06T11:08:28.849Z,48.85
2022-10-06T11:11:29.197Z,48.81
2022-10-06T11:14:34.584Z,48.80
2022-10-06T11:17:45.562Z,48.77
2022-10-06T11:20:53.101Z,48.75
2022-10-06T11:23:56.436Z,48.52
2022-10-06T11:27:11.126Z,48.50
2022-10-06T11:30:07.393Z,48.67
2022-10-06T11:33:08.676Z,48.80
2022-10-06T11:35:58.599Z,48.80
2022-10-06T11:38:56.537Z,48.90
2022-10-06T11:41:50.588Z,48.91
2022-10-06T11:44:46.212Z,48.86
2022-10-06T11:47:47.458Z,48.89
2022-10-06T11:50:40.363Z,48.88
2022-10-06T11:53:42.342Z,48.90
2022-10-06T11:56:48.192Z,48.82
2022-10-06T11:59:38.507Z,49.18
2022-10-06T12:02:41.914Z,49.32
2022-10-06T12:05:55.780Z,49.55
2022-10-06T12:08:46.799Z,49.67
2022-10-06T12:11:44.091Z,49.55
2022-10-06T12:18:00.925Z,49.66
2022-10-06T12:21:06.475Z,49.54
2022-10-06T12:24:05.086Z,49.70
2022-10-06T12:27:06.058Z,49.80
2022-10-06T12:30:03.340Z,49.66
2022-10-06T12:32:56.762Z,49.74
2022-10-06T12:35:48.413Z,49.96
2022-10-06T12:39:02.390Z,50.19
2022-10-06T12:42:02.787Z,50.40
2022-10-06T12:44:53.806Z,50.61
2022-10-06T12:47:45.223Z,50.58
2022-10-06T12:50:37.570Z,50.66
2022-10-06T12:53:33.309Z,50.75
2022-10-06T12:56:31.897Z,50.91
2022-10-06T12:59:25.249Z,51.00
2022-10-06T13:02:21.354Z,51.02
2022-10-06T13:05:15.570Z,51.13
2022-10-06T13:08:07.931Z,51.16
2022-10-06T13:11:21.010Z,51.29
2022-10-06T13:14:16.448Z,51.28
2022-10-06T13:17:07.006Z,51.32
2022-10-06T13:19:57.347Z,51.29
2022-10-06T13:22:47.981Z,51.33
2022-10-06T13:25:45.437Z,51.46
2022-10-06T13:28:51.094Z,51.34
2022-10-06T13:31:52.628Z,51.34
2022-10-06T13:34:44.133Z,51.34
2022-10-06T13:37:35.275Z,51.37
2022-10-06T13:40:44.732Z,51.48
2022-10-06T13:43:40.329Z,51.60
2022-10-06T13:46:33.493Z,51.68
2022-10-06T13:49:27.526Z,51.74
2022-10-06T13:52:21.587Z,51.78
2022-10-06T13:55:20.624Z,51.90
2022-10-06T13:58:19.110Z,52.10
2022-10-06T14:01:09.431Z,52.23
2022-10-06T14:04:18.469Z,52.36
2022-10-06T14:07:12.959Z,52.54
2022-10-06T14:10:02.914Z,52.64
2022-10-06T14:12:52.795Z,52.64
2022-10-06T14:15:49.793Z,52.77
2022-10-06T14:18:42.057Z,53.29
2022-10-06T14:21:39.196Z,53.63
2022-10-06T14:24:34.035Z,53.88
2022-10-06T14:27:24.401Z,53.99
2022-10-06T14:30:16.869Z,54.15
2022-10-06T14:33:06.266Z,54.06
2022-10-06T14:35:56.663Z,53.85
2022-10-06T14:38:49.173Z,54.04
2022-10-06T14:41:39.698Z,54.19
2022-10-06T14:44:29.392Z,54.18
2022-10-06T14:47:19.838Z,54.48
2022-10-06T14:50:11.299Z,54.71
2022-10-06T14:53:01.697Z,54.95
2022-10-06T14:55:52.016Z,55.77
2022-10-06T14:58:46.124Z,56.75
2022-10-06T15:01:37.909Z,57.28
2022-10-06T15:04:28.264Z,57.55
2022-10-06T15:07:35.465Z,57.73
2022-10-06T15:10:25.724Z,58.17
2022-10-06T15:13:15.530Z,59.02
2022-10-06T15:16:05.652Z,59.16
2022-10-06T15:18:55.384Z,59.48
2022-10-06T15:21:46.490Z,60.28
2022-10-06T15:24:36.806Z,60.43
2022-10-06T15:27:44.771Z,60.81
2022-10-06T15:30:34.716Z,61.09
2022-10-06T15:33:24.594Z,61.07
2022-10-06T15:36:23.339Z,61.24
2022-10-06T15:39:16.323Z,61.68
2022-10-06T15:42:08.057Z,62.14
2022-10-06T15:44:58.587Z,62.06
2022-10-06T15:47:52.138Z,62.19
2022-10-06T15:50:42.213Z,62.16
2022-10-06T15:53:32.264Z,62.24
2022-10-06T15:56:22.303Z,62.37
2022-10-06T15:59:12.791Z,62.61
2022-10-06T16:02:05.155Z,62.42
2022-10-06T16:05:20.380Z,62.35
2022-10-06T16:08:10.370Z,62.86
2022-10-06T16:11:00.197Z,63.07
2022-10-06T16:13:49.926Z,63.11
2022-10-06T16:16:43.498Z,63.29
2022-10-06T16:19:36.797Z,63.87
2022-10-06T16:22:26.470Z,63.85
2022-10-06T16:25:16.664Z,63.82
2022-10-06T16:28:06.799Z,63.92
2022-10-06T16:30:59.751Z,63.82
2022-10-06T16:33:50.715Z,63.99
2022-10-06T16:36:40.768Z,64.11
2022-10-06T16:39:31.257Z,64.13
2022-10-06T16:42:21.652Z,63.98
2022-10-06T16:45:15.027Z,63.97
2022-10-06T16:48:05.532Z,63.87
2022-10-06T16:51:05.262Z,63.81
2022-10-06T16:53:57.631Z,63.85
2022-10-06T16:56:52.109Z,63.80
2022-10-06T16:59:46.458Z,64.00
2022-10-06T17:02:37.148Z,64.24
2022-10-06T17:05:27.379Z,64.26
2022-10-06T17:08:17.993Z,64.02
2022-10-06T17:11:11.324Z,63.87
2022-10-06T17:14:01.193Z,63.84
2022-10-06T17:16:53.068Z,63.80
2022-10-06T17:19:42.684Z,63.94
2022-10-06T17:22:32.388Z,64.03
2022-10-06T17:25:22.675Z,63.95
2022-10-06T17:28:12.916Z,63.99
2022-10-06T17:31:03.460Z,64.10
2022-10-06T17:33:53.911Z,64.43
2022-10-06T17:36:47.369Z,64.47
2022-10-06T17:39:37.378Z,64.79
2022-10-06T17:42:27.805Z,64.92
2022-10-06T17:45:21.254Z,65.21
2022-10-06T17:48:12.509Z,65.36
2022-10-06T17:51:02.828Z,65.56
2022-10-06T17:53:53.872Z,65.62
2022-10-06T17:56:44.687Z,65.71
2022-10-06T17:59:34.285Z,65.63
2022-10-06T18:02:24.461Z,65.73
2022-10-06T18:05:14.385Z,65.55
2022-10-06T18:08:05.713Z,65.61
2022-10-06T18:11:13.490Z,65.62
2022-10-06T18:14:06.389Z,65.27
2022-10-06T18:16:59.192Z,64.94
2022-10-06T18:19:49.641Z,64.64
2022-10-06T18:22:40.036Z,64.34
2022-10-06T18:25:31.615Z,64.21
2022-10-06T18:28:21.988Z,64.13
2022-10-06T18:31:12.888Z,63.81
2022-10-06T18:36:10.922Z,63.52
2022-10-06T18:37:13.796Z,63.50
2022-10-06T18:40:06.679Z,63.24
2022-10-06T18:42:56.896Z,63.22
2022-10-06T18:46:05.052Z,62.82
2022-10-06T18:48:59.133Z,62.50
2022-10-06T18:51:55.879Z,62.26
2022-10-06T18:54:48.934Z,62.47
2022-10-06T18:57:40.500Z,62.21
2022-10-06T19:00:31.204Z,62.13
2022-10-06T19:03:21.172Z,61.88
2022-10-06T19:06:11.647Z,61.69
2022-10-06T19:09:02.881Z,61.68
2022-10-06T19:11:55.902Z,61.64
2022-10-06T19:14:47.963Z,61.80
2022-10-06T19:17:40.894Z,61.91
2022-10-06T19:20:32.136Z,61.93
2022-10-06T19:23:21.828Z,61.89
2022-10-06T19:26:13.115Z,61.50
2022-10-06T19:29:05.893Z,61.35
2022-10-06T19:31:59.868Z,61.14
2022-10-06T19:34:50.025Z,61.12
2022-10-06T19:37:40.019Z,61.36
2022-10-06T19:40:30.381Z,61.31
2022-10-06T19:43:20.091Z,60.87
2022-10-06T19:46:09.987Z,60.50
2022-10-06T19:49:05.509Z,60.41
2022-10-06T19:51:55.789Z,60.18
2022-10-06T19:54:46.261Z,59.99
2022-10-06T19:57:36.248Z,59.91
2022-10-06T20:00:26.783Z,59.90
2022-10-06T20:03:17.093Z,59.87
2022-10-06T20:06:08.671Z,59.92
2022-10-06T20:09:05.672Z,59.82
2022-10-06T20:11:55.863Z,59.93
2022-10-06T20:14:46.021Z,59.92
2022-10-06T20:17:36.159Z,60.10
2022-10-06T20:20:26.297Z,60.04
2022-10-06T20:23:16.416Z,59.97
2022-10-06T20:26:15.262Z,59.76
2022-10-06T20:29:07.593Z,59.71
2022-10-06T20:31:58.895Z,59.52
2022-10-06T20:34:48.692Z,59.20
2022-10-06T20:37:42.063Z,58.81
2022-10-06T20:40:43.330Z,58.65
2022-10-06T20:43:33.569Z,58.85
2022-10-06T20:46:24.183Z,58.61
2022-10-06T20:49:17.851Z,58.64
2022-10-06T20:52:10.125Z,58.54
2022-10-06T20:55:00.151Z,58.29
2022-10-06T20:57:50.942Z,58.23
2022-10-06T21:00:41.154Z,58.40
2022-10-06T21:03:30.897Z,58.28
2022-10-06T21:06:20.935Z,58.17
2022-10-06T21:09:13.859Z,58.13
2022-10-06T21:12:05.301Z,58.07
2022-10-06T21:14:56.952Z,58.08
2022-10-06T21:17:47.886Z,58.20
2022-10-06T21:20:39.788Z,58.28
2022-10-06T21:23:37.031Z,58.20
2022-10-06T21:26:27.936Z,58.24
2022-10-06T21:29:18.360Z,58.41
2022-10-06T21:32:09.997Z,58.21
2022-10-06T21:34:59.830Z,58.16
2022-10-06T21:37:49.715Z,58.23
2022-10-06T21:40:39.856Z,58.24
2022-10-06T21:43:29.721Z,58.42
2022-10-06T21:46:28.433Z,58.53
2022-10-06T21:49:20.769Z,58.57
2022-10-06T21:52:11.331Z,58.47
2022-10-06T21:55:01.504Z,58.52
2022-10-06T21:57:51.243Z,58.58
2022-10-06T22:00:41.037Z,58.61
2022-10-06T22:03:30.850Z,58.57
2022-10-06T22:06:22.159Z,58.46
2022-10-06T22:09:15.839Z,58.46
2022-10-06T22:12:06.185Z,58.44
2022-10-06T22:14:58.779Z,58.50
2022-10-06T22:17:49.225Z,58.43
2022-10-06T22:20:38.935Z,58.34
2022-10-06T22:23:28.824Z,58.31
2022-10-06T22:26:18.748Z,58.21
2022-10-06T22:29:10.258Z,58.15
2022-10-06T22:32:00.568Z,58.14
2022-10-06T22:34:51.019Z,58.05
2022-10-06T22:37:41.479Z,57.98
2022-10-06T22:40:33.965Z,57.95
2022-10-06T22:43:24.392Z,57.71
2022-10-06T22:46:15.459Z,57.68
2022-10-06T22:49:06.264Z,57.81
2022-10-06T22:51:56.987Z,57.81
2022-10-06T22:54:46.852Z,57.87
2022-10-06T22:57:37.241Z,57.82
2022-10-06T23:00:27.862Z,57.77
2022-10-06T23:03:18.810Z,57.66
2022-10-06T23:06:11.612Z,57.56
2022-10-06T23:09:03.515Z,57.58
2022-10-06T23:11:53.451Z,57.64
2022-10-06T23:14:43.267Z,57.65
2022-10-06T23:17:33.017Z,57.73
2022-10-06T23:20:23.680Z,57.67
2022-10-06T23:23:13.862Z,57.74
2022-10-06T23:26:08.945Z,57.82
2022-10-06T23:29:01.235Z,57.86
2022-10-06T23:31:51.320Z,57.86
2022-10-06T23:34:41.484Z,57.86
2022-10-06T23:37:31.234Z,57.87
2022-10-06T23:40:21.352Z,57.82
2022-10-06T23:43:10.955Z,57.78
2022-10-06T23:46:01.685Z,57.70
2022-10-06T23:48:51.834Z,57.56
2022-10-06T23:51:44.875Z,57.61
2022-10-06T23:54:34.658Z,57.56
2022-10-06T23:57:24.355Z,57.64
